Time;durP1;ratioP1;P1;durP2;ratioP2;P2;SDS_P1;SDS_P2;PMS_P1;PMS_P2;Temp;Humidity;BMP_temperature;BMP_pressure;BME280_temperature;BME280_humidity;BME280_pressure;Samples;Min_cycle;Max_cycle;Signal;HPM_P1;HPM_P2
2022/01/27 00:05:31;;;;;;;89.38;38.88;;;-1.20;99.90;;;;;;6151675;23;20029;-88
2022/01/27 00:08:25;;;;;;;88.53;38.78;;;-1.20;99.90;;;;;;6151579;23;20037;-89
2022/01/27 00:11:16;;;;;;;91.20;40.08;;;-1.30;99.90;;;;;;6151262;23;20032;-88
2022/01/27 00:14:03;;;;;;;94.88;40.08;;;-1.30;99.90;;;;;;6130639;23;20029;-88
2022/01/27 00:16:58;;;;;;;95.85;39.67;;;-1.30;99.90;;;;;;6149027;23;20033;-88
2022/01/27 00:19:45;;;;;;;94.63;39.42;;;-1.30;99.90;;;;;;6128599;23;20163;-86
2022/01/27 00:22:32;;;;;;;102.35;41.75;;;-1.30;99.90;;;;;;6129102;23;20025;-89
2022/01/27 00:25:23;;;;;;;91.05;40.47;;;-1.40;99.90;;;;;;6150791;23;20159;-88
2022/01/27 00:28:13;;;;;;;90.20;41.15;;;-1.40;99.90;;;;;;6150801;23;20361;-87
2022/01/27 00:31:12;;;;;;;103.30;41.20;;;-1.30;99.90;;;;;;6129604;23;20091;-89
2022/01/27 00:34:03;;;;;;;102.10;43.13;;;-1.40;99.90;;;;;;6151043;23;20026;-88
2022/01/27 00:36:50;;;;;;;100.15;42.15;;;-1.40;99.90;;;;;;6130958;23;20106;-88
2022/01/27 00:39:43;;;;;;;100.13;41.90;;;-1.40;99.90;;;;;;6150560;23;20333;-88
2022/01/27 00:42:33;;;;;;;94.95;39.88;;;-1.40;99.90;;;;;;6150900;23;20104;-88
2022/01/27 00:45:22;;;;;;;102.00;43.72;;;-1.50;99.90;;;;;;6151428;23;20359;-88
2022/01/27 00:48:10;;;;;;;98.78;40.33;;;-1.50;99.90;;;;;;6130988;23;20036;-88
2022/01/27 00:51:02;;;;;;;85.75;37.42;;;-1.50;99.90;;;;;;6150490;23;20071;-88
2022/01/27 00:54:02;;;;;;;92.85;39.58;;;-1.50;99.90;;;;;;6131729;23;20057;-89
2022/01/27 01:02:52;;;;;;;90.45;41.53;;;-1.50;99.90;;;;;;6150908;23;20037;-89
2022/01/27 01:14:43;;;;;;;93.60;41.53;;;-1.60;99.90;;;;;;6152886;23;20063;-89
2022/01/27 01:17:38;;;;;;;100.63;43.03;;;-1.60;99.90;;;;;;6151433;23;20033;-87
2022/01/27 01:30:07;;;;;;;92.70;42.42;;;-1.60;99.90;;;;;;6151420;23;20099;-90
2022/01/27 01:32:57;;;;;;;102.60;41.92;;;-1.60;99.90;;;;;;6153011;23;20115;-89
2022/01/27 01:35:49;;;;;;;102.32;42.38;;;-1.70;99.90;;;;;;6158808;22;20021;-89
2022/01/27 01:38:38;;;;;;;103.05;43.67;;;-1.70;99.90;;;;;;6132562;23;20033;-88
2022/01/27 01:41:29;;;;;;;100.72;41.47;;;-1.80;99.90;;;;;;6128352;23;20127;-90
2022/01/27 01:44:17;;;;;;;100.63;43.53;;;-1.70;99.90;;;;;;6151197;23;20416;-88
2022/01/27 01:47:05;;;;;;;93.22;40.28;;;-1.70;99.90;;;;;;6134006;23;20025;-88
2022/01/27 01:49:52;;;;;;;96.30;42.40;;;-1.70;99.90;;;;;;6163462;23;20026;-88
2022/01/27 01:52:40;;;;;;;94.07;40.13;;;-1.70;99.90;;;;;;6164861;22;20089;-88
2022/01/27 01:55:30;;;;;;;91.93;39.53;;;-1.70;99.90;;;;;;6130891;23;20025;-88
2022/01/27 01:58:19;;;;;;;92.72;40.50;;;-1.70;99.90;;;;;;6152107;23;20405;-88
2022/01/27 02:01:08;;;;;;;91.57;39.85;;;-1.70;99.90;;;;;;6151016;23;20065;-87
2022/01/27 02:03:56;;;;;;;93.90;38.35;;;-1.80;99.90;;;;;;6151690;23;20098;-89
2022/01/27 02:18:31;;;;;;;97.22;39.75;;;-2.00;99.90;;;;;;6151294;23;20075;-88
2022/01/27 02:21:18;;;;;;;98.18;39.50;;;-2.10;99.90;;;;;;6129705;23;20029;-89
2022/01/27 02:24:06;;;;;;;90.65;38.75;;;-2.10;99.90;;;;;;6150069;23;20033;-88
2022/01/27 02:26:53;;;;;;;92.53;39.28;;;-2.20;99.90;;;;;;6131496;23;20132;-87
2022/01/27 02:29:40;;;;;;;93.93;39.03;;;-2.20;99.90;;;;;;6130136;23;20178;-88
2022/01/27 02:32:28;;;;;;;100.60;39.63;;;-2.30;99.90;;;;;;6130203;23;20022;-88
2022/01/27 02:35:16;;;;;;;96.50;40.22;;;-2.30;99.90;;;;;;6149897;23;20294;-87
2022/01/27 02:38:05;;;;;;;97.18;38.13;;;-2.30;99.90;;;;;;6131214;23;20032;-88
2022/01/27 02:40:59;;;;;;;92.15;39.35;;;-2.30;99.90;;;;;;6151849;23;20159;-88
2022/01/27 02:43:54;;;;;;;95.47;38.35;;;-2.30;99.90;;;;;;6131438;23;20426;-88
2022/01/27 02:46:45;;;;;;;87.57;36.25;;;-2.40;99.90;;;;;;6130569;23;20424;-89
2022/01/27 02:49:34;;;;;;;96.60;38.47;;;-2.40;99.90;;;;;;6128441;23;20428;-88
2022/01/27 02:52:22;;;;;;;84.63;34.83;;;-2.40;99.90;;;;;;6152040;23;20172;-88
2022/01/27 02:55:09;;;;;;;87.00;35.10;;;-2.40;99.90;;;;;;6130370;23;20119;-88
2022/01/27 02:57:58;;;;;;;85.15;34.85;;;-2.50;99.90;;;;;;6152577;23;20037;-88
2022/01/27 03:00:48;;;;;;;84.60;34.28;;;-2.60;99.90;;;;;;6152494;23;20059;-90
2022/01/27 03:03:35;;;;;;;82.90;34.80;;;-2.60;99.90;;;;;;6150694;23;20036;-89
2022/01/27 03:06:23;;;;;;;79.60;33.88;;;-2.50;99.90;;;;;;6129290;23;20025;-87
2022/01/27 03:09:12;;;;;;;80.25;34.38;;;-2.50;99.90;;;;;;6152641;23;20079;-88
2022/01/27 03:12:11;;;;;;;83.38;35.58;;;-2.50;99.90;;;;;;6128002;23;20040;-88
2022/01/27 03:14:58;;;;;;;84.05;34.28;;;-2.40;99.90;;;;;;6131258;23;20033;-87
2022/01/27 03:17:45;;;;;;;78.13;33.45;;;-2.40;99.90;;;;;;6132674;23;20082;-88
2022/01/27 03:20:33;;;;;;;79.45;34.22;;;-2.40;99.90;;;;;;6129893;23;20046;-88
2022/01/27 03:23:21;;;;;;;79.25;33.85;;;-2.40;99.90;;;;;;6152019;23;20022;-90
2022/01/27 03:26:08;;;;;;;81.20;34.60;;;-2.40;99.90;;;;;;6151695;23;20061;-87
2022/01/27 03:28:58;;;;;;;78.43;33.60;;;-2.30;99.90;;;;;;6152890;23;20032;-88
2022/01/27 03:31:48;;;;;;;75.90;32.55;;;-2.40;99.90;;;;;;6130175;23;20025;-88
2022/01/27 03:34:38;;;;;;;74.57;32.08;;;-2.40;99.90;;;;;;6130793;23;20076;-88
2022/01/27 03:37:25;;;;;;;79.57;34.75;;;-2.40;99.90;;;;;;6129885;23;20091;-88
2022/01/27 03:40:12;;;;;;;83.22;35.05;;;-2.50;99.90;;;;;;6151105;23;20025;-87
2022/01/27 03:43:05;;;;;;;83.38;36.67;;;-2.50;99.90;;;;;;6130857;23;20025;-87
2022/01/27 03:45:52;;;;;;;85.40;35.20;;;-2.50;99.90;;;;;;6131705;23;20021;-88
2022/01/27 03:48:40;;;;;;;84.15;36.13;;;-2.50;99.90;;;;;;6151529;23;20389;-88
2022/01/27 03:51:27;;;;;;;80.82;33.30;;;-2.40;99.90;;;;;;6150519;23;20135;-87
2022/01/27 03:54:17;;;;;;;83.68;36.10;;;-2.50;99.90;;;;;;6151417;23;20108;-88
2022/01/27 03:57:04;;;;;;;84.35;33.95;;;-2.50;99.90;;;;;;6127535;23;20053;-89
2022/01/27 03:59:51;;;;;;;79.63;34.50;;;-2.50;99.90;;;;;;6127651;23;20030;-87
2022/01/27 04:02:50;;;;;;;83.60;34.42;;;-2.50;99.90;;;;;;6138570;23;20033;-88
2022/01/27 04:05:48;;;;;;;77.95;33.75;;;-2.50;99.90;;;;;;6160862;22;20025;-87
2022/01/27 04:08:40;;;;;;;76.07;32.97;;;-2.40;99.90;;;;;;6160349;23;20056;-89
2022/01/27 04:11:30;;;;;;;82.75;33.50;;;-2.40;99.90;;;;;;6131309;23;20062;-88
2022/01/27 04:14:17;;;;;;;88.55;35.40;;;-2.50;99.90;;;;;;6139174;23;20029;-89
2022/01/27 04:17:04;;;;;;;83.78;35.25;;;-2.60;99.90;;;;;;6138510;23;20099;-88
2022/01/27 04:19:54;;;;;;;85.45;35.28;;;-2.70;99.90;;;;;;6164522;23;20067;-89
2022/01/27 04:22:42;;;;;;;90.47;36.92;;;-2.70;99.90;;;;;;6146331;23;20091;-91
2022/01/27 04:25:29;;;;;;;94.05;36.63;;;-2.70;99.90;;;;;;6155649;23;20042;-90
2022/01/27 04:28:24;;;;;;;88.10;36.63;;;-2.70;99.90;;;;;;6154863;23;20090;-88
2022/01/27 04:31:15;;;;;;;93.60;39.17;;;-2.70;99.90;;;;;;6153464;23;20026;-88
2022/01/27 04:34:02;;;;;;;82.95;36.47;;;-2.70;99.90;;;;;;6130005;23;20513;-89
2022/01/27 04:36:49;;;;;;;94.57;39.03;;;-2.70;99.90;;;;;;6152260;23;20041;-88
2022/01/27 04:39:54;;;;;;;102.97;39.80;;;-2.70;99.90;;;;;;6151745;23;20123;-89
2022/01/27 04:48:45;;;;;;;107.32;40.13;;;-2.80;99.90;;;;;;6152990;23;20036;-88
2022/01/27 04:51:33;;;;;;;100.75;38.72;;;-2.80;99.90;;;;;;6130582;23;20104;-88
2022/01/27 04:54:39;;;;;;;87.80;33.85;;;-2.80;99.90;;;;;;6151671;23;20032;-86
2022/01/27 04:57:29;;;;;;;95.85;36.33;;;-2.90;99.90;;;;;;6151688;23;20037;-90
2022/01/27 05:00:18;;;;;;;83.33;33.63;;;-2.90;99.90;;;;;;6149995;23;20030;-87
2022/01/27 05:03:16;;;;;;;94.07;36.55;;;-2.90;99.90;;;;;;6131109;23;20021;-88
2022/01/27 05:06:04;;;;;;;93.18;36.80;;;-3.00;99.90;;;;;;6152574;23;20733;-87
2022/01/27 05:08:51;;;;;;;93.63;33.65;;;-2.90;99.90;;;;;;6130652;23;20053;-88
2022/01/27 05:11:52;;;;;;;98.53;38.47;;;-2.90;99.90;;;;;;6131677;23;20029;-88
2022/01/27 05:14:40;;;;;;;90.05;36.72;;;-3.00;99.90;;;;;;6130369;23;20040;-87
2022/01/27 05:17:27;;;;;;;96.10;37.75;;;-2.90;99.90;;;;;;6151561;23;20029;-88
2022/01/27 05:20:14;;;;;;;93.13;36.97;;;-2.90;99.90;;;;;;6150666;23;20649;-89
2022/01/27 05:23:01;;;;;;;94.03;37.92;;;-2.80;99.90;;;;;;6151446;23;20026;-87
2022/01/27 05:25:48;;;;;;;84.72;35.65;;;-2.80;99.90;;;;;;6131390;23;20131;-89
2022/01/27 05:28:36;;;;;;;95.05;37.85;;;-2.80;99.90;;;;;;6131028;23;20053;-88
2022/01/27 05:31:23;;;;;;;90.43;38.10;;;-2.80;99.90;;;;;;6131271;23;20026;-88
2022/01/27 05:34:10;;;;;;;90.40;36.92;;;-2.70;99.90;;;;;;6131813;23;20036;-88
2022/01/27 05:37:51;;;;;;;93.53;38.72;;;-2.70;99.90;;;;;;6132188;23;20029;-88
2022/01/27 05:40:47;;;;;;;103.70;39.15;;;-2.70;99.90;;;;;;6154144;23;20038;-89
2022/01/27 05:43:49;;;;;;;94.55;38.10;;;-2.70;99.90;;;;;;6151742;23;20108;-90
2022/01/27 05:47:46;;;;;;;95.38;36.58;;;-2.70;99.90;;;;;;6131678;23;20072;-87
2022/01/27 05:50:50;;;;;;;95.28;37.85;;;-2.70;99.90;;;;;;6150357;23;20304;-88
2022/01/27 05:54:11;;;;;;;87.35;36.95;;;-2.80;99.90;;;;;;6131487;23;20037;-89
2022/01/27 05:58:01;;;;;;;93.82;37.65;;;-2.80;99.90;;;;;;6156874;23;20021;-89
2022/01/27 06:01:11;;;;;;;99.60;38.72;;;-2.90;99.90;;;;;;6075565;23;20145;-90
2022/01/27 06:08:28;;;;;;;105.82;37.58;;;-3.00;99.90;;;;;;6028693;23;20022;-87
2022/01/27 06:11:16;;;;;;;97.70;37.67;;;-3.00;99.90;;;;;;6100880;23;20009;-89
2022/01/27 06:14:03;;;;;;;97.22;37.33;;;-3.00;99.90;;;;;;6174894;22;20013;-85
2022/01/27 06:16:51;;;;;;;101.57;38.35;;;-3.00;99.90;;;;;;6175601;22;20019;-85
2022/01/27 06:19:38;;;;;;;99.20;38.15;;;-3.00;99.90;;;;;;6172443;22;20049;-87
2022/01/27 06:22:25;;;;;;;104.90;38.10;;;-2.90;99.90;;;;;;6150073;22;20021;-90
2022/01/27 06:25:14;;;;;;;100.72;39.22;;;-2.90;99.90;;;;;;6169115;22;20036;-87
2022/01/27 06:28:02;;;;;;;97.53;38.13;;;-2.90;99.90;;;;;;6174860;23;20021;-89
2022/01/27 06:30:51;;;;;;;99.00;38.72;;;-2.90;99.90;;;;;;6174313;22;20491;-90
2022/01/27 06:33:41;;;;;;;99.68;38.60;;;-2.90;99.90;;;;;;6148229;23;20022;-89
2022/01/27 07:01:44;;;;;;;93.97;37.33;;;-2.80;99.90;;;;;;6125715;23;20018;-88
2022/01/27 07:05:18;;;;;;;;;;;;;;;;;;;;;
2022/01/27 07:21:14;;;;;;;;;;;;;;;;;;;;;
2022/01/27 07:41:02;;;;;;;92.32;35.70;;;-2.60;99.90;;;;;;6086486;23;20302;-87
2022/01/27 07:43:50;;;;;;;83.47;34.33;;;-2.50;99.90;;;;;;6158376;23;20089;-86
2022/01/27 07:47:05;;;;;;;87.18;35.90;;;-2.50;99.90;;;;;;6130067;23;20048;-87
2022/01/27 07:49:51;;;;;;;68.38;27.58;;;-2.40;99.90;;;;;;6149791;22;20105;-86
2022/01/27 07:52:41;;;;;;;88.45;36.22;;;-2.40;99.90;;;;;;6146822;23;20041;-87
2022/01/27 07:55:32;;;;;;;88.57;36.33;;;-2.30;99.90;;;;;;6147557;23;20030;-86
2022/01/27 07:58:19;;;;;;;85.45;36.17;;;-2.30;99.90;;;;;;6128125;23;20137;-84
2022/01/27 08:01:08;;;;;;;80.60;34.17;;;-2.20;99.90;;;;;;6148076;23;20029;-84
2022/01/27 08:03:55;;;;;;;84.47;34.47;;;-2.20;99.90;;;;;;6125641;23;20029;-87
2022/01/27 08:06:45;;;;;;;78.65;34.17;;;-2.10;99.90;;;;;;6146072;23;20098;-87
2022/01/27 08:09:32;;;;;;;74.97;31.75;;;-2.10;99.90;;;;;;6127119;23;20037;-86
2022/01/27 08:12:19;;;;;;;82.90;35.42;;;-2.00;99.90;;;;;;6125990;23;20025;-86
2022/01/27 08:15:11;;;;;;;76.78;33.67;;;-2.00;99.90;;;;;;6148517;23;20032;-87
2022/01/27 08:17:59;;;;;;;82.22;32.33;;;-2.00;99.90;;;;;;6148562;23;20120;-85
2022/01/27 08:20:47;;;;;;;82.53;32.80;;;-2.00;99.90;;;;;;6149314;23;20053;-87
2022/01/27 08:23:41;;;;;;;83.15;33.70;;;-2.00;99.90;;;;;;6127931;23;20044;-87
2022/01/27 08:26:37;;;;;;;;;;;;;;;;;;;;;
2022/01/27 08:29:26;;;;;;;79.97;34.28;;;-1.90;99.90;;;;;;6145334;23;20022;-87
2022/01/27 08:35:44;;;;;;;70.00;30.70;;;-1.80;99.90;;;;;;6151812;23;20036;-86
2022/01/27 08:43:10;;;;;;;74.72;30.02;;;-1.60;99.90;;;;;;6149005;23;20048;-87
2022/01/27 08:46:05;;;;;;;74.57;30.15;;;-1.80;99.90;;;;;;6151332;23;20456;-87
2022/01/27 08:48:54;;;;;;;72.28;30.25;;;-1.80;99.90;;;;;;6130160;23;20026;-86
2022/01/27 08:51:47;;;;;;;65.38;27.85;;;-1.70;99.90;;;;;;6152704;23;20037;-87
2022/01/27 08:54:56;;;;;;;66.80;27.40;;;-1.50;99.90;;;;;;6139011;23;20091;-89
2022/01/27 08:58:55;;;;;;;58.60;26.25;;;-1.40;99.90;;;;;;6165156;23;20037;-88
2022/01/27 09:02:24;;;;;;;;;;;;;;;;;;;;;
2022/01/27 09:06:00;;;;;;;57.55;24.77;;;-1.20;99.90;;;;;;6201912;23;20021;-88
2022/01/27 09:09:30;;;;;;;;;;;;;;;;;;;;;
2022/01/27 09:21:23;;;;;;;51.63;22.92;;;-0.70;99.90;;;;;;6029401;23;20069;-89
2022/01/27 09:25:30;;;;;;;36.60;18.40;;;-0.60;99.90;;;;;;6068112;23;20120;-87
2022/01/27 09:28:19;;;;;;;45.78;20.60;;;-0.50;99.90;;;;;;6164532;23;20033;-89
2022/01/27 09:31:20;;;;;;;42.70;21.73;;;-0.40;99.90;;;;;;6141475;23;20026;-89
2022/01/27 09:35:20;;;;;;;48.25;21.52;;;-0.20;99.90;;;;;;6006884;23;20031;-87
2022/01/27 09:51:00;;;;;;;38.53;19.15;;;2.90;99.90;;;;;;5941877;23;20549;-87
2022/01/27 09:58:49;;;;;;;;;;;;;;;;;;;;;
2022/01/27 10:02:40;;;;;;;;;;;;;;;;;;;;;
2022/01/27 10:05:53;;;;;;;33.60;19.15;;;8.50;77.60;;;;;;5900129;24;20026;-88
2022/01/27 10:09:02;;;;;;;36.58;20.05;;;6.90;78.10;;;;;;5909834;24;20397;-87
2022/01/27 10:11:51;;;;;;;38.78;21.20;;;5.80;84.30;;;;;;5948065;24;20126;-88
2022/01/27 10:14:40;;;;;;;38.05;20.55;;;5.20;89.10;;;;;;5946984;24;20064;-88
2022/01/27 10:18:37;;;;;;;;;;;;;;;;;;;;;
2022/01/27 10:29:38;;;;;;;45.50;21.42;;;1.60;99.90;;;;;;5978499;23;20454;-90
2022/01/27 10:33:31;;;;;;;;;;;;;;;;;;;;;
2022/01/27 10:36:29;;;;;;;45.20;21.25;;;0.40;99.90;;;;;;5949931;24;20029;-87
2022/01/27 10:39:21;;;;;;;41.10;20.20;;;0.30;99.90;;;;;;5949091;24;20024;-85
2022/01/27 10:42:52;;;;;;;;;;;;;;;;;;;;;
2022/01/27 10:46:19;;;;;;;46.10;20.35;;;0.40;99.90;;;;;;5948754;24;20116;-87
2022/01/27 10:49:11;;;;;;;45.75;22.05;;;0.30;99.90;;;;;;5952717;23;20039;-86
2022/01/27 10:52:28;;;;;;;;;;;;;;;;;;;;;
2022/01/27 10:56:10;;;;;;;;;;;;;;;;;;;;;
2022/01/27 10:59:32;;;;;;;49.42;21.17;;;0.50;99.90;;;;;;6054802;23;20030;-88
2022/01/27 11:03:35;;;;;;;42.08;19.40;;;0.40;99.90;;;;;;6105822;23;20085;-86
2022/01/27 11:11:13;;;;;;;49.85;20.50;;;0.50;99.90;;;;;;5872568;24;20070;-89
2022/01/27 11:18:56;;;;;;;;;;;;;;;;;;;;;
2022/01/27 11:30:51;;;;;;;45.85;19.52;;;0.40;99.90;;;;;;5905213;24;20034;-90
2022/01/27 11:34:08;;;;;;;40.45;18.67;;;0.50;99.90;;;;;;5823530;24;20098;-88
2022/01/27 11:37:34;;;;;;;;;;;;;;;;;;;;;
2022/01/27 11:48:53;;;;;;;41.53;20.38;;;0.60;99.90;;;;;;6177561;23;20020;-87
2022/01/27 11:51:41;;;;;;;40.83;18.77;;;0.70;99.90;;;;;;6182695;23;20025;-85
2022/01/27 11:54:28;;;;;;;35.40;18.63;;;0.70;99.90;;;;;;6159428;23;20026;-87
2022/01/27 11:57:39;;;;;;;43.30;20.10;;;0.50;99.90;;;;;;6130519;23;20034;-85
2022/01/27 12:00:30;;;;;;;41.97;19.40;;;0.50;99.90;;;;;;6130514;23;20022;-85
2022/01/27 12:03:18;;;;;;;39.83;20.40;;;0.50;99.90;;;;;;6149979;23;20021;-87
2022/01/27 12:06:15;;;;;;;59.67;20.63;;;0.60;99.90;;;;;;6151313;23;20025;-85
2022/01/27 12:09:18;;;;;;;39.60;19.58;;;0.60;99.90;;;;;;6110529;23;20087;-88
2022/01/27 12:12:33;;;;;;;37.88;18.13;;;0.70;99.90;;;;;;6133214;23;20108;-89
2022/01/27 12:15:23;;;;;;;40.47;17.95;;;0.80;99.90;;;;;;6153013;23;20036;-87
2022/01/27 12:18:39;;;;;;;36.55;18.42;;;0.90;99.90;;;;;;6134230;23;20338;-86
2022/01/27 12:21:35;;;;;;;39.70;19.15;;;1.00;99.90;;;;;;6140808;23;20409;-85
2022/01/27 12:24:34;;;;;;;39.92;19.23;;;1.20;99.90;;;;;;6136211;23;20036;-88
2022/01/27 12:27:54;;;;;;;35.65;18.00;;;1.30;99.90;;;;;;6163185;23;20029;-89
2022/01/27 12:30:55;;;;;;;38.83;19.20;;;1.30;99.90;;;;;;6162889;23;20036;-89
2022/01/27 12:34:11;;;;;;;36.50;18.15;;;1.50;99.90;;;;;;6150472;23;20053;-89
2022/01/27 12:37:27;;;;;;;39.80;18.15;;;1.40;99.90;;;;;;6129939;23;20086;-89
2022/01/27 12:40:25;;;;;;;39.50;18.70;;;1.50;99.90;;;;;;6126819;23;20388;-89
2022/01/27 12:48:07;;;;;;;40.15;19.90;;;1.60;99.90;;;;;;6119203;23;20031;-89
2022/01/27 12:59:35;;;;;;;39.47;18.48;;;1.70;99.90;;;;;;6172466;23;20095;-89
2022/01/27 13:02:32;;;;;;;36.50;18.08;;;1.60;99.90;;;;;;6157312;23;20033;-87
2022/01/27 13:05:37;;;;;;;36.90;18.52;;;1.60;99.90;;;;;;6137134;23;20044;-87
2022/01/27 13:08:39;;;;;;;;;;;;;;;;;;;;;
2022/01/27 13:16:11;;;;;;;35.40;18.02;;;1.90;99.90;;;;;;6124157;23;20030;-87
2022/01/27 13:25:02;;;;;;;;;;;;;;;;;;;;;
2022/01/27 13:28:24;;;;;;;;;;;;;;;;;;;;;
2022/01/27 13:31:27;;;;;;;31.92;15.95;;;2.20;99.90;;;;;;6094892;23;20022;-89
2022/01/27 13:34:48;;;;;;;;;;;;;;;;;;;;;
2022/01/27 13:38:38;;;;;;;;;;;;;;;;;;;;;
2022/01/27 13:41:45;;;;;;;25.08;13.43;;;3.00;99.90;;;;;;5926778;23;20056;-85
2022/01/27 13:45:00;;;;;;;33.65;15.25;;;3.10;99.90;;;;;;5922968;24;20025;-85
2022/01/27 13:48:22;;;;;;;28.30;13.60;;;3.10;99.90;;;;;;5932424;23;20026;-87
2022/01/27 13:55:43;;;;;;;;;;;;;;;;;;;;;
2022/01/27 13:59:12;;;;;;;29.20;13.50;;;3.60;99.90;;;;;;5937908;23;20061;-86
2022/01/27 14:14:20;;;;;;;25.45;12.88;;;5.30;99.90;;;;;;6054578;23;20040;-85
2022/01/27 14:17:33;;;;;;;27.88;14.13;;;4.70;99.90;;;;;;6098704;23;20106;-85
2022/01/27 14:20:21;;;;;;;23.55;12.75;;;4.30;99.90;;;;;;6084272;23;20109;-86
2022/01/27 17:01:11;;;;;;;;;;;;;;;;;;;;;
2022/01/27 17:04:13;;;;;;;;;;;1.60;99.90;;;;;;5822108;24;20033;-88
2022/01/27 17:07:08;;;;;;;45.38;20.40;;;1.60;99.90;;;;;;5886444;24;19958;-90
2022/01/27 17:10:30;;;;;;;43.25;22.13;;;1.60;99.90;;;;;;6032918;23;20035;-91
2022/01/27 17:13:20;;;;;;;45.20;21.15;;;1.60;99.90;;;;;;6102906;23;20030;-90
2022/01/27 17:16:19;;;;;;;45.22;22.25;;;1.60;99.90;;;;;;6175984;23;20032;-90
2022/01/27 17:19:09;;;;;;;43.72;20.55;;;1.60;99.90;;;;;;6219368;23;20032;-90
2022/01/27 17:22:18;;;;;;;45.83;21.95;;;1.60;99.90;;;;;;6218606;23;20059;-90
2022/01/27 17:25:18;;;;;;;44.55;21.85;;;1.60;99.90;;;;;;6195982;23;20021;-89
2022/01/27 17:28:06;;;;;;;43.20;20.52;;;1.60;99.90;;;;;;6194488;23;20028;-88
2022/01/27 17:31:04;;;;;;;44.53;20.98;;;1.60;99.90;;;;;;6214449;23;20090;-88
2022/01/27 17:33:57;;;;;;;38.85;20.85;;;1.60;99.90;;;;;;6225227;23;20020;-90
2022/01/27 17:36:45;;;;;;;52.35;22.67;;;1.60;99.90;;;;;;6223590;23;20365;-90
2022/01/27 17:39:32;;;;;;;42.95;21.35;;;1.70;99.90;;;;;;6201833;23;20441;-89
2022/01/27 17:42:21;;;;;;;46.00;20.88;;;1.70;99.90;;;;;;6200593;23;20284;-88
2022/01/27 17:45:10;;;;;;;38.88;20.52;;;1.70;99.90;;;;;;6197372;23;20071;-87
2022/01/27 17:47:57;;;;;;;39.83;19.67;;;1.70;99.90;;;;;;6218912;23;20103;-88
2022/01/27 17:50:46;;;;;;;37.97;18.58;;;1.70;99.90;;;;;;6217712;23;20078;-87
2022/01/27 17:53:35;;;;;;;49.25;20.35;;;1.70;99.90;;;;;;6220141;23;20414;-90
2022/01/27 17:56:25;;;;;;;41.42;19.50;;;1.70;99.90;;;;;;6216393;23;20079;-88
2022/01/27 17:59:14;;;;;;;42.13;20.38;;;1.70;99.90;;;;;;6197626;23;20072;-87
2022/01/27 18:02:02;;;;;;;35.22;17.52;;;1.70;99.90;;;;;;6225726;23;20070;-88
2022/01/27 18:04:52;;;;;;;37.88;17.77;;;1.80;99.90;;;;;;6248739;23;20035;-88
2022/01/27 18:07:45;;;;;;;37.72;19.73;;;1.80;99.90;;;;;;6248934;23;20046;-89
2022/01/27 18:10:32;;;;;;;;;;;1.70;99.90;;;;;;6228367;23;20107;-88
2022/01/27 18:13:19;;;;;;;38.20;17.42;;;1.70;99.90;;;;;;6248514;23;19931;-86
2022/01/27 18:16:06;;;;;;;38.28;17.85;;;1.80;99.90;;;;;;6251776;23;20072;-87
2022/01/27 18:18:55;;;;;;;33.05;17.38;;;1.80;99.90;;;;;;6230917;23;20078;-86
2022/01/27 18:21:42;;;;;;;37.78;17.77;;;1.80;99.90;;;;;;6254335;23;20024;-88
2022/01/27 18:24:30;;;;;;;34.50;16.40;;;1.90;99.90;;;;;;6252720;22;20024;-87
2022/01/27 18:27:18;;;;;;;31.65;16.65;;;1.90;99.90;;;;;;6260408;23;20023;-88
2022/01/27 18:30:05;;;;;;;31.27;16.33;;;1.90;99.90;;;;;;6237129;23;20068;-88
2022/01/27 18:32:53;;;;;;;36.35;16.80;;;1.90;99.90;;;;;;6257943;23;20024;-88
2022/01/27 18:35:41;;;;;;;32.30;15.95;;;2.00;99.90;;;;;;6236043;23;20024;-86
2022/01/27 18:38:35;;;;;;;31.83;15.75;;;1.90;99.90;;;;;;6260259;23;20035;-87
2022/01/27 18:41:31;;;;;;;34.15;16.23;;;1.90;99.90;;;;;;6258307;23;20034;-90
2022/01/27 18:44:19;;;;;;;30.45;16.20;;;1.90;99.90;;;;;;6259241;23;20032;-87
2022/01/27 18:49:50;;;;;;;30.08;14.57;;;1.90;99.90;;;;;;6248955;22;20016;-83
2022/01/27 18:52:38;;;;;;;28.08;14.70;;;2.00;99.90;;;;;;6217626;22;20115;-84
2022/01/27 18:55:27;;;;;;;29.67;15.50;;;2.00;99.90;;;;;;6188529;23;20025;-84
2022/01/27 18:58:17;;;;;;;26.25;12.65;;;2.00;99.90;;;;;;6184380;23;20048;-85
2022/01/27 19:01:06;;;;;;;22.38;11.93;;;2.10;99.90;;;;;;6182471;23;20053;-83
2022/01/27 19:03:54;;;;;;;21.30;12.45;;;2.10;99.90;;;;;;6181326;23;20029;-84
2022/01/27 19:06:41;;;;;;;19.88;11.20;;;2.10;99.90;;;;;;6180748;23;20451;-86
2022/01/27 19:09:34;;;;;;;21.33;12.30;;;2.10;99.90;;;;;;6181616;23;20412;-83
2022/01/27 19:12:21;;;;;;;20.52;11.57;;;2.20;99.90;;;;;;6182073;23;20040;-83
2022/01/27 19:15:09;;;;;;;24.30;11.52;;;2.20;99.90;;;;;;6180991;23;20029;-87
2022/01/27 19:17:59;;;;;;;22.38;11.85;;;2.20;99.90;;;;;;6182757;23;20096;-88
2022/01/27 19:20:46;;;;;;;22.15;13.05;;;2.10;99.90;;;;;;6182723;23;20025;-84
2022/01/27 19:23:43;;;;;;;25.10;14.02;;;2.10;99.90;;;;;;6182630;23;20024;-86
2022/01/27 19:26:49;;;;;;;23.45;12.73;;;2.00;99.90;;;;;;6184883;23;20028;-88
2022/01/27 19:29:43;;;;;;;28.35;15.38;;;2.00;99.90;;;;;;6186671;23;20060;-88
2022/01/27 19:32:30;;;;;;;27.73;13.60;;;2.00;99.90;;;;;;6185942;23;20140;-89
2022/01/27 19:35:21;;;;;;;27.80;15.70;;;2.00;99.90;;;;;;6185080;23;20036;-86
2022/01/27 19:38:08;;;;;;;22.85;11.90;;;2.00;99.90;;;;;;6189074;23;20316;-89
2022/01/27 19:41:04;;;;;;;22.65;12.77;;;2.00;99.90;;;;;;6188580;23;20416;-85
2022/01/27 19:43:54;;;;;;;20.77;11.07;;;2.00;99.90;;;;;;6187071;23;20266;-87
2022/01/27 19:46:41;;;;;;;17.60;9.30;;;2.00;99.90;;;;;;6192982;23;20052;-86
2022/01/27 19:49:29;;;;;;;17.15;8.90;;;2.10;99.90;;;;;;6201861;23;20072;-88
2022/01/27 19:52:17;;;;;;;15.75;8.88;;;2.20;99.90;;;;;;6200754;23;20053;-85
2022/01/27 19:55:05;;;;;;;12.15;7.47;;;2.20;99.90;;;;;;6255278;22;20062;-87
2022/01/27 19:57:58;;;;;;;14.02;8.48;;;2.30;99.90;;;;;;6276194;22;20020;-87
2022/01/27 20:00:45;;;;;;;13.25;6.75;;;2.40;99.90;;;;;;6298249;22;20103;-87
2022/01/27 20:03:35;;;;;;;10.70;6.43;;;2.40;99.90;;;;;;6289947;22;20403;-87
2022/01/27 20:06:23;;;;;;;9.73;5.80;;;2.50;99.90;;;;;;6281608;22;20042;-89
2022/01/27 20:09:10;;;;;;;11.38;5.55;;;2.60;99.90;;;;;;6282860;22;20019;-84
2022/01/27 20:11:57;;;;;;;8.57;5.43;;;2.60;99.90;;;;;;6280312;22;20023;-84
2022/01/27 20:14:50;;;;;;;7.50;4.38;;;2.60;99.90;;;;;;6277533;22;20093;-87
2022/01/27 20:17:37;;;;;;;7.80;4.80;;;2.70;99.90;;;;;;6277449;22;20394;-87
2022/01/27 20:20:28;;;;;;;8.52;5.00;;;2.70;99.90;;;;;;6254393;22;20307;-88
2022/01/27 20:23:15;;;;;;;10.68;5.75;;;2.60;99.90;;;;;;6252656;22;20039;-88
2022/01/27 20:26:05;;;;;;;11.73;5.22;;;2.60;99.90;;;;;;6253603;22;20028;-84
2022/01/27 20:28:53;;;;;;;9.13;4.45;;;2.60;99.90;;;;;;6275984;22;20524;-86
2022/01/27 20:31:53;;;;;;;9.32;4.53;;;2.50;99.90;;;;;;6275247;22;20027;-86
2022/01/27 20:35:04;;;;;;;6.38;3.83;;;2.50;99.90;;;;;;6257598;22;20032;-85
2022/01/27 20:37:55;;;;;;;9.90;5.05;;;2.50;99.90;;;;;;6254465;22;20039;-86
2022/01/27 20:40:43;;;;;;;7.18;3.97;;;2.50;99.90;;;;;;6253648;22;20034;-86
2022/01/27 20:43:30;;;;;;;7.30;4.82;;;2.50;99.90;;;;;;6275439;22;20023;-86
2022/01/27 20:46:20;;;;;;;9.25;4.68;;;2.50;99.90;;;;;;6255289;22;20099;-88
2022/01/27 20:49:13;;;;;;;8.20;4.40;;;2.50;99.90;;;;;;6275388;22;20030;-86
2022/01/27 20:52:01;;;;;;;7.00;5.55;;;2.40;99.90;;;;;;6275431;22;20027;-89
2022/01/27 20:54:48;;;;;;;7.78;4.55;;;2.40;99.90;;;;;;6254409;22;20031;-89
2022/01/27 20:57:39;;;;;;;8.38;5.18;;;2.40;99.90;;;;;;6251613;22;20028;-87
2022/01/27 21:00:29;;;;;;;9.48;5.80;;;2.40;99.90;;;;;;6252683;22;20024;-86
2022/01/27 21:03:20;;;;;;;10.50;6.55;;;2.40;99.90;;;;;;6274866;22;20034;-86
2022/01/27 21:06:07;;;;;;;11.43;5.95;;;2.30;99.90;;;;;;6274633;22;20101;-87
2022/01/27 21:08:55;;;;;;;7.97;5.43;;;2.30;99.90;;;;;;6274080;22;20024;-86
2022/01/27 21:11:42;;;;;;;9.43;6.25;;;2.30;99.90;;;;;;6277758;22;20036;-88
2022/01/27 21:14:32;;;;;;;9.65;5.97;;;2.30;99.90;;;;;;6255312;22;20074;-87
2022/01/27 21:17:19;;;;;;;11.57;6.05;;;2.30;99.90;;;;;;6276643;22;20020;-88
2022/01/27 21:20:10;;;;;;;10.30;6.50;;;2.30;99.90;;;;;;6275158;22;20028;-89
2022/01/27 21:22:57;;;;;;;12.07;6.80;;;2.30;99.90;;;;;;6276459;22;20118;-85
2022/01/27 21:25:44;;;;;;;10.80;6.10;;;2.20;99.90;;;;;;6254498;22;20030;-87
2022/01/27 21:28:32;;;;;;;12.15;6.45;;;2.20;99.90;;;;;;6253195;22;20268;-88
2022/01/27 21:31:21;;;;;;;11.68;6.82;;;2.20;99.90;;;;;;6276798;22;20023;-86
2022/01/27 21:34:09;;;;;;;10.93;7.13;;;2.20;99.90;;;;;;6276414;22;20023;-87
2022/01/27 21:36:56;;;;;;;12.10;6.82;;;2.20;99.90;;;;;;6255085;22;20093;-86
2022/01/27 21:39:44;;;;;;;10.40;5.50;;;2.20;99.90;;;;;;6253800;22;20024;-89
2022/01/27 21:42:35;;;;;;;11.30;4.82;;;2.30;99.90;;;;;;6253900;22;20441;-86
2022/01/27 21:45:22;;;;;;;8.95;4.57;;;2.30;99.90;;;;;;6254597;22;20023;-87